Weather at Canyon Ranch Airport

Public forecast

Using degrees Fahrenheit for public forecast. Weather courtesy of forecast.io.

Closest aviation weather report (METAR) to Canyon Ranch Airport

Closest report is Sonora Municipal Airport, 21.6 nm (40.0 km) NNW. Retrieved 2022/01/17 04:35 UTC (19 minutes ago):

KSOA 170435Z AUTO 00000KT 10SM CLR M01/M14 A3013 RMK AO2

Closest aviation forecast (TAF) to Canyon Ranch Airport

Closest forecast is Sonora Municipal Airport, 21.6 nm (40.0 km) NNW. Retrieved 2022-01-17 00:34 UTC (4 hours ago):

TAF KSOA 162332Z 1700/1724 25006KT P6SM SKC FM170030 VRB03KT P6SM SKC FM171700 18006KT P6SM SKC